sensor_id;sensor_type;location;lat;lon;timestamp;temperature;humidity
71177;DHT22;58877;51.992;4.504;2022-08-06T00:02:29;15.19;70.35
71177;DHT22;58877;51.992;4.504;2022-08-06T00:04:56;15.22;70.47
71177;DHT22;58877;51.992;4.504;2022-08-06T00:07:22;15.10;70.98
71177;DHT22;58877;51.992;4.504;2022-08-06T00:09:48;15.09;71.29
71177;DHT22;58877;51.992;4.504;2022-08-06T00:12:14;15.15;71.51
71177;DHT22;58877;51.992;4.504;2022-08-06T00:14:39;15.12;71.62
71177;DHT22;58877;51.992;4.504;2022-08-06T00:17:05;15.18;71.22
71177;DHT22;58877;51.992;4.504;2022-08-06T00:19:31;15.19;70.83
71177;DHT22;58877;51.992;4.504;2022-08-06T00:21:56;15.16;70.83
71177;DHT22;58877;51.992;4.504;2022-08-06T00:24:22;15.06;71.51
71177;DHT22;58877;51.992;4.504;2022-08-06T00:26:48;15.05;71.60
71177;DHT22;58877;51.992;4.504;2022-08-06T00:29:14;14.99;71.61
71177;DHT22;58877;51.992;4.504;2022-08-06T00:31:40;14.91;72.14
71177;DHT22;58877;51.992;4.504;2022-08-06T00:34:06;14.79;72.35
71177;DHT22;58877;51.992;4.504;2022-08-06T00:36:34;14.79;72.31
71177;DHT22;58877;51.992;4.504;2022-08-06T00:39:03;14.93;71.97
71177;DHT22;58877;51.992;4.504;2022-08-06T00:41:30;14.92;71.86
71177;DHT22;58877;51.992;4.504;2022-08-06T00:43:57;14.99;71.61
71177;DHT22;58877;51.992;4.504;2022-08-06T00:46:23;14.93;71.62
71177;DHT22;58877;51.992;4.504;2022-08-06T00:48:49;14.88;71.67
71177;DHT22;58877;51.992;4.504;2022-08-06T00:51:15;14.86;71.67
71177;DHT22;58877;51.992;4.504;2022-08-06T00:53:40;14.85;71.56
71177;DHT22;58877;51.992;4.504;2022-08-06T00:56:06;14.74;72.00
71177;DHT22;58877;51.992;4.504;2022-08-06T00:58:32;14.65;72.62
71177;DHT22;58877;51.992;4.504;2022-08-06T01:00:59;14.63;72.84
71177;DHT22;58877;51.992;4.504;2022-08-06T01:03:24;14.68;72.68
71177;DHT22;58877;51.992;4.504;2022-08-06T01:05:50;14.63;72.96
71177;DHT22;58877;51.992;4.504;2022-08-06T01:08:16;14.57;73.08
71177;DHT22;58877;51.992;4.504;2022-08-06T01:10:41;14.49;73.45
71177;DHT22;58877;51.992;4.504;2022-08-06T01:13:08;14.48;73.66
71177;DHT22;58877;51.992;4.504;2022-08-06T01:15:34;14.49;73.42
71177;DHT22;58877;51.992;4.504;2022-08-06T01:18:10;14.49;73.69
71177;DHT22;58877;51.992;4.504;2022-08-06T01:29:08;14.51;73.50
71177;DHT22;58877;51.992;4.504;2022-08-06T01:31:44;14.46;73.37
71177;DHT22;58877;51.992;4.504;2022-08-06T01:34:17;14.37;73.56
71177;DHT22;58877;51.992;4.504;2022-08-06T01:36:51;14.35;73.71
71177;DHT22;58877;51.992;4.504;2022-08-06T01:39:21;14.64;73.17
71177;DHT22;58877;51.992;4.504;2022-08-06T01:41:52;14.69;72.91
71177;DHT22;58877;51.992;4.504;2022-08-06T01:44:22;14.75;72.70
71177;DHT22;58877;51.992;4.504;2022-08-06T01:46:55;14.64;73.04
71177;DHT22;58877;51.992;4.504;2022-08-06T01:49:32;14.49;73.34
71177;DHT22;58877;51.992;4.504;2022-08-06T01:52:02;14.41;73.83
71177;DHT22;58877;51.992;4.504;2022-08-06T01:54:30;14.51;73.58
71177;DHT22;58877;51.992;4.504;2022-08-06T01:57:00;14.52;73.22
71177;DHT22;58877;51.992;4.504;2022-08-06T01:59:37;14.52;73.04
71177;DHT22;58877;51.992;4.504;2022-08-06T02:02:10;14.45;72.85
71177;DHT22;58877;51.992;4.504;2022-08-06T02:04:40;14.27;73.44
71177;DHT22;58877;51.992;4.504;2022-08-06T02:07:10;14.17;74.11
71177;DHT22;58877;51.992;4.504;2022-08-06T02:09:40;14.14;74.27
71177;DHT22;58877;51.992;4.504;2022-08-06T02:12:11;14.14;74.18
71177;DHT22;58877;51.992;4.504;2022-08-06T02:14:42;14.17;73.95
71177;DHT22;58877;51.992;4.504;2022-08-06T02:17:13;14.38;73.59
71177;DHT22;58877;51.992;4.504;2022-08-06T02:19:46;14.46;73.39
71177;DHT22;58877;51.992;4.504;2022-08-06T02:22:13;14.44;74.09
71177;DHT22;58877;51.992;4.504;2022-08-06T02:24:39;14.33;74.20
71177;DHT22;58877;51.992;4.504;2022-08-06T02:27:08;14.21;74.56
71177;DHT22;58877;51.992;4.504;2022-08-06T02:29:37;14.25;74.92
71177;DHT22;58877;51.992;4.504;2022-08-06T02:32:03;14.06;74.91
71177;DHT22;58877;51.992;4.504;2022-08-06T02:34:29;13.90;75.28
71177;DHT22;58877;51.992;4.504;2022-08-06T02:37:15;13.87;75.90
71177;DHT22;58877;51.992;4.504;2022-08-06T02:39:53;13.90;75.44
71177;DHT22;58877;51.992;4.504;2022-08-06T02:42:31;13.83;75.35
71177;DHT22;58877;51.992;4.504;2022-08-06T02:48:23;13.74;75.92
71177;DHT22;58877;51.992;4.504;2022-08-06T02:50:53;13.70;76.17
71177;DHT22;58877;51.992;4.504;2022-08-06T02:53:30;13.69;76.17
71177;DHT22;58877;51.992;4.504;2022-08-06T02:56:08;13.66;76.08
71177;DHT22;58877;51.992;4.504;2022-08-06T02:58:47;13.66;76.44
71177;DHT22;58877;51.992;4.504;2022-08-06T03:01:33;13.65;76.65
71177;DHT22;58877;51.992;4.504;2022-08-06T03:04:01;13.60;76.41
71177;DHT22;58877;51.992;4.504;2022-08-06T03:06:32;13.70;76.42
71177;DHT22;58877;51.992;4.504;2022-08-06T03:09:01;13.73;76.13
71177;DHT22;58877;51.992;4.504;2022-08-06T03:11:31;13.79;76.14
71177;DHT22;58877;51.992;4.504;2022-08-06T03:14:01;13.91;75.87
71177;DHT22;58877;51.992;4.504;2022-08-06T03:16:30;13.94;75.70
71177;DHT22;58877;51.992;4.504;2022-08-06T03:18:58;14.01;75.40
71177;DHT22;58877;51.992;4.504;2022-08-06T03:21:26;14.01;75.25
71177;DHT22;58877;51.992;4.504;2022-08-06T03:23:54;14.01;75.16
71177;DHT22;58877;51.992;4.504;2022-08-06T03:26:21;13.87;75.28
71177;DHT22;58877;51.992;4.504;2022-08-06T03:28:50;13.80;75.36
71177;DHT22;58877;51.992;4.504;2022-08-06T03:31:17;13.71;75.54
71177;DHT22;58877;51.992;4.504;2022-08-06T03:33:43;13.76;75.62
71177;DHT22;58877;51.992;4.504;2022-08-06T03:36:10;13.74;75.61
71177;DHT22;58877;51.992;4.504;2022-08-06T03:38:49;13.67;75.82
71177;DHT22;58877;51.992;4.504;2022-08-06T03:41:16;13.62;75.87
71177;DHT22;58877;51.992;4.504;2022-08-06T03:43:42;13.62;76.16
71177;DHT22;58877;51.992;4.504;2022-08-06T03:46:09;13.73;75.64
71177;DHT22;58877;51.992;4.504;2022-08-06T03:48:40;13.74;75.91
71177;DHT22;58877;51.992;4.504;2022-08-06T03:51:17;13.76;76.18
71177;DHT22;58877;51.992;4.504;2022-08-06T03:53:48;13.87;75.90
71177;DHT22;58877;51.992;4.504;2022-08-06T03:56:20;13.76;75.74
71177;DHT22;58877;51.992;4.504;2022-08-06T03:58:49;13.67;76.13
71177;DHT22;58877;51.992;4.504;2022-08-06T04:01:20;13.67;76.55
71177;DHT22;58877;51.992;4.504;2022-08-06T04:03:48;13.73;76.34
71177;DHT22;58877;51.992;4.504;2022-08-06T04:06:17;13.74;75.97
71177;DHT22;58877;51.992;4.504;2022-08-06T04:08:45;13.66;76.05
71177;DHT22;58877;51.992;4.504;2022-08-06T04:11:11;13.71;75.77
71177;DHT22;58877;51.992;4.504;2022-08-06T04:13:38;13.83;75.66
71177;DHT22;58877;51.992;4.504;2022-08-06T04:16:06;13.81;75.75
71177;DHT22;58877;51.992;4.504;2022-08-06T04:18:38;13.77;76.19
71177;DHT22;58877;51.992;4.504;2022-08-06T04:21:09;13.65;76.42
71177;DHT22;58877;51.992;4.504;2022-08-06T04:23:35;13.59;76.57
71177;DHT22;58877;51.992;4.504;2022-08-06T04:26:07;13.62;76.80
71177;DHT22;58877;51.992;4.504;2022-08-06T04:28:36;13.59;76.87
71177;DHT22;58877;51.992;4.504;2022-08-06T04:31:07;13.52;76.65
71177;DHT22;58877;51.992;4.504;2022-08-06T04:33:34;13.48;76.87
71177;DHT22;58877;51.992;4.504;2022-08-06T04:36:02;13.53;77.22
71177;DHT22;58877;51.992;4.504;2022-08-06T04:38:31;13.63;77.10
71177;DHT22;58877;51.992;4.504;2022-08-06T04:40:58;13.69;77.07
71177;DHT22;58877;51.992;4.504;2022-08-06T04:43:24;13.69;77.09
71177;DHT22;58877;51.992;4.504;2022-08-06T04:45:51;13.73;77.24
71177;DHT22;58877;51.992;4.504;2022-08-06T04:48:17;14.01;75.71
71177;DHT22;58877;51.992;4.504;2022-08-06T04:50:44;13.90;76.04
71177;DHT22;58877;51.992;4.504;2022-08-06T04:53:16;13.87;76.40
71177;DHT22;58877;51.992;4.504;2022-08-06T04:55:44;13.87;76.44
71177;DHT22;58877;51.992;4.504;2022-08-06T04:58:11;13.87;76.87
71177;DHT22;58877;51.992;4.504;2022-08-06T05:00:42;13.84;76.89
71177;DHT22;58877;51.992;4.504;2022-08-06T05:03:08;13.87;76.97
71177;DHT22;58877;51.992;4.504;2022-08-06T05:05:39;13.89;76.72
71177;DHT22;58877;51.992;4.504;2022-08-06T05:08:08;13.96;76.79
71177;DHT22;58877;51.992;4.504;2022-08-06T05:11:14;14.01;76.72
71177;DHT22;58877;51.992;4.504;2022-08-06T05:13:44;14.16;76.83
71177;DHT22;58877;51.992;4.504;2022-08-06T05:16:12;14.23;76.89
71177;DHT22;58877;51.992;4.504;2022-08-06T05:18:50;14.40;76.46
71177;DHT22;58877;51.992;4.504;2022-08-06T05:21:21;14.64;75.67
71177;DHT22;58877;51.992;4.504;2022-08-06T05:23:51;14.99;75.06
71177;DHT22;58877;51.992;4.504;2022-08-06T05:26:20;15.15;74.53
71177;DHT22;58877;51.992;4.504;2022-08-06T05:28:45;15.19;74.53
71177;DHT22;58877;51.992;4.504;2022-08-06T05:31:11;15.19;74.31
71177;DHT22;58877;51.992;4.504;2022-08-06T05:33:39;15.22;73.71
71177;DHT22;58877;51.992;4.504;2022-08-06T05:36:10;15.16;74.08
71177;DHT22;58877;51.992;4.504;2022-08-06T05:38:39;15.22;73.97
71177;DHT22;58877;51.992;4.504;2022-08-06T05:41:07;15.29;73.33
71177;DHT22;58877;51.992;4.504;2022-08-06T05:43:37;15.53;71.93
71177;DHT22;58877;51.992;4.504;2022-08-06T05:46:08;15.73;71.74
71177;DHT22;58877;51.992;4.504;2022-08-06T05:48:39;15.81;71.97
71177;DHT22;58877;51.992;4.504;2022-08-06T05:51:19;15.81;71.95
71177;DHT22;58877;51.992;4.504;2022-08-06T05:54:01;15.90;71.32
71177;DHT22;58877;51.992;4.504;2022-08-06T05:56:37;15.97;71.19
71177;DHT22;58877;51.992;4.504;2022-08-06T05:59:20;16.08;70.65
71177;DHT22;58877;51.992;4.504;2022-08-06T06:01:49;16.24;69.57
71177;DHT22;58877;51.992;4.504;2022-08-06T06:04:16;16.54;68.57
71177;DHT22;58877;51.992;4.504;2022-08-06T06:06:44;16.65;67.87
71177;DHT22;58877;51.992;4.504;2022-08-06T06:09:10;16.61;67.28
71177;DHT22;58877;51.992;4.504;2022-08-06T06:11:39;16.71;67.35
71177;DHT22;58877;51.992;4.504;2022-08-06T06:20:06;17.16;63.96
71177;DHT22;58877;51.992;4.504;2022-08-06T06:25:54;17.27;63.44
71177;DHT22;58877;51.992;4.504;2022-08-06T06:28:31;17.44;63.34
71177;DHT22;58877;51.992;4.504;2022-08-06T06:31:06;17.50;62.55
71177;DHT22;58877;51.992;4.504;2022-08-06T06:33:52;17.53;62.79
71177;DHT22;58877;51.992;4.504;2022-08-06T06:36:32;17.60;62.16
71177;DHT22;58877;51.992;4.504;2022-08-06T06:39:25;17.62;61.73
71177;DHT22;58877;51.992;4.504;2022-08-06T06:42:03;17.81;61.58
71177;DHT22;58877;51.992;4.504;2022-08-06T06:47:22;17.87;62.72
71177;DHT22;58877;51.992;4.504;2022-08-06T06:50:12;17.88;61.75
71177;DHT22;58877;51.992;4.504;2022-08-06T06:52:41;17.87;61.19
71177;DHT22;58877;51.992;4.504;2022-08-06T06:55:27;17.97;60.93
71177;DHT22;58877;51.992;4.504;2022-08-06T06:58:04;17.97;61.51
71177;DHT22;58877;51.992;4.504;2022-08-06T07:00:33;18.14;61.76
71177;DHT22;58877;51.992;4.504;2022-08-06T07:03:09;18.24;60.79
71177;DHT22;58877;51.992;4.504;2022-08-06T07:05:42;18.29;61.22
71177;DHT22;58877;51.992;4.504;2022-08-06T07:08:11;18.47;60.04
71177;DHT22;58877;51.992;4.504;2022-08-06T07:10:40;18.55;60.57
71177;DHT22;58877;51.992;4.504;2022-08-06T07:13:10;18.69;59.63
71177;DHT22;58877;51.992;4.504;2022-08-06T07:15:37;18.73;58.77
71177;DHT22;58877;51.992;4.504;2022-08-06T07:18:06;18.66;58.96
71177;DHT22;58877;51.992;4.504;2022-08-06T07:20:33;18.76;58.16
71177;DHT22;58877;51.992;4.504;2022-08-06T07:23:06;18.95;57.50
71177;DHT22;58877;51.992;4.504;2022-08-06T07:25:45;19.00;57.69
71177;DHT22;58877;51.992;4.504;2022-08-06T07:28:12;18.85;57.56
71177;DHT22;58877;51.992;4.504;2022-08-06T07:30:41;18.92;57.70
71177;DHT22;58877;51.992;4.504;2022-08-06T07:33:09;18.99;57.68
71177;DHT22;58877;51.992;4.504;2022-08-06T07:35:40;19.38;57.77
71177;DHT22;58877;51.992;4.504;2022-08-06T07:38:08;19.78;56.89
71177;DHT22;58877;51.992;4.504;2022-08-06T07:40:52;20.22;53.49
71177;DHT22;58877;51.992;4.504;2022-08-06T07:43:22;20.24;54.40
71177;DHT22;58877;51.992;4.504;2022-08-06T07:45:51;20.14;54.21
71177;DHT22;58877;51.992;4.504;2022-08-06T07:48:24;19.38;55.31
71177;DHT22;58877;51.992;4.504;2022-08-06T07:50:54;19.07;55.89
71177;DHT22;58877;51.992;4.504;2022-08-06T07:53:22;19.14;55.35
71177;DHT22;58877;51.992;4.504;2022-08-06T07:55:48;19.23;55.67
71177;DHT22;58877;51.992;4.504;2022-08-06T07:58:14;19.03;56.02
71177;DHT22;58877;51.992;4.504;2022-08-06T08:00:42;19.33;55.18
71177;DHT22;58877;51.992;4.504;2022-08-06T08:03:19;19.03;54.90
71177;DHT22;58877;51.992;4.504;2022-08-06T08:06:04;18.88;55.09
71177;DHT22;58877;51.992;4.504;2022-08-06T08:08:55;18.88;54.88
71177;DHT22;58877;51.992;4.504;2022-08-06T08:11:23;19.28;54.53
71177;DHT22;58877;51.992;4.504;2022-08-06T08:13:54;19.61;54.34
71177;DHT22;58877;51.992;4.504;2022-08-06T08:16:21;19.97;54.73
71177;DHT22;58877;51.992;4.504;2022-08-06T08:18:47;20.70;53.76
71177;DHT22;58877;51.992;4.504;2022-08-06T08:21:14;21.00;52.70
71177;DHT22;58877;51.992;4.504;2022-08-06T08:23:41;21.33;49.81
71177;DHT22;58877;51.992;4.504;2022-08-06T08:26:07;21.03;51.43
71177;DHT22;58877;51.992;4.504;2022-08-06T08:28:33;20.87;50.06
71177;DHT22;58877;51.992;4.504;2022-08-06T08:30:59;20.53;51.27
71177;DHT22;58877;51.992;4.504;2022-08-06T08:33:29;20.09;52.30
71177;DHT22;58877;51.992;4.504;2022-08-06T08:35:55;20.14;52.74
71177;DHT22;58877;51.992;4.504;2022-08-06T08:38:21;19.70;53.64
71177;DHT22;58877;51.992;4.504;2022-08-06T08:40:50;19.88;53.23
71177;DHT22;58877;51.992;4.504;2022-08-06T08:43:21;20.30;53.36
71177;DHT22;58877;51.992;4.504;2022-08-06T08:45:49;20.59;51.72
71177;DHT22;58877;51.992;4.504;2022-08-06T08:48:20;20.62;52.04
71177;DHT22;58877;51.992;4.504;2022-08-06T08:50:49;21.00;50.75
71177;DHT22;58877;51.992;4.504;2022-08-06T08:53:22;20.55;49.28
71177;DHT22;58877;51.992;4.504;2022-08-06T08:55:52;20.28;48.53
71177;DHT22;58877;51.992;4.504;2022-08-06T08:58:18;20.35;50.24
71177;DHT22;58877;51.992;4.504;2022-08-06T09:00:44;20.73;48.97
71177;DHT22;58877;51.992;4.504;2022-08-06T09:03:10;20.29;49.75
71177;DHT22;58877;51.992;4.504;2022-08-06T09:05:36;20.19;51.48
71177;DHT22;58877;51.992;4.504;2022-08-06T09:08:03;19.95;49.18
71177;DHT22;58877;51.992;4.504;2022-08-06T09:10:29;19.63;50.93
71177;DHT22;58877;51.992;4.504;2022-08-06T09:12:56;19.44;51.33
71177;DHT22;58877;51.992;4.504;2022-08-06T09:15:22;19.54;51.97
71177;DHT22;58877;51.992;4.504;2022-08-06T09:17:49;19.60;52.06
71177;DHT22;58877;51.992;4.504;2022-08-06T09:20:15;19.73;51.89
71177;DHT22;58877;51.992;4.504;2022-08-06T09:22:41;20.22;50.23
71177;DHT22;58877;51.992;4.504;2022-08-06T09:25:40;20.59;49.40
71177;DHT22;58877;51.992;4.504;2022-08-06T09:28:51;20.73;49.57
71177;DHT22;58877;51.992;4.504;2022-08-06T09:31:10;20.80;48.82
71177;DHT22;58877;51.992;4.504;2022-08-06T09:33:41;21.00;47.44
71177;DHT22;58877;51.992;4.504;2022-08-06T09:36:12;21.23;47.22
71177;DHT22;58877;51.992;4.504;2022-08-06T09:38:56;20.94;47.75
71177;DHT22;58877;51.992;4.504;2022-08-06T09:41:28;20.89;46.81
71177;DHT22;58877;51.992;4.504;2022-08-06T09:43:56;20.97;45.92
71177;DHT22;58877;51.992;4.504;2022-08-06T09:49:02;21.65;44.85
71177;DHT22;58877;51.992;4.504;2022-08-06T09:51:28;21.75;44.40
71177;DHT22;58877;51.992;4.504;2022-08-06T09:53:57;21.64;44.78
71177;DHT22;58877;51.992;4.504;2022-08-06T09:56:24;21.54;44.76
71177;DHT22;58877;51.992;4.504;2022-08-06T09:58:50;21.61;45.06
71177;DHT22;58877;51.992;4.504;2022-08-06T10:01:23;21.89;46.09
71177;DHT22;58877;51.992;4.504;2022-08-06T10:03:54;22.32;45.23
71177;DHT22;58877;51.992;4.504;2022-08-06T10:06:19;22.56;44.40
71177;DHT22;58877;51.992;4.504;2022-08-06T10:09:04;22.53;43.38
71177;DHT22;58877;51.992;4.504;2022-08-06T10:11:38;21.88;44.06
71177;DHT22;58877;51.992;4.504;2022-08-06T10:14:04;21.65;43.79
71177;DHT22;58877;51.992;4.504;2022-08-06T10:16:30;21.31;43.90
71177;DHT22;58877;51.992;4.504;2022-08-06T10:18:59;20.89;45.17
71177;DHT22;58877;51.992;4.504;2022-08-06T10:21:33;21.16;44.60
71177;DHT22;58877;51.992;4.504;2022-08-06T10:24:02;21.44;42.70
71177;DHT22;58877;51.992;4.504;2022-08-06T10:26:31;21.65;43.75
71177;DHT22;58877;51.992;4.504;2022-08-06T10:29:03;21.75;42.79
71177;DHT22;58877;51.992;4.504;2022-08-06T10:31:31;21.59;42.50
71177;DHT22;58877;51.992;4.504;2022-08-06T10:34:09;21.71;41.61
71177;DHT22;58877;51.992;4.504;2022-08-06T10:36:40;22.35;43.50
71177;DHT22;58877;51.992;4.504;2022-08-06T10:39:07;23.03;41.61
71177;DHT22;58877;51.992;4.504;2022-08-06T10:41:34;23.36;40.94
71177;DHT22;58877;51.992;4.504;2022-08-06T10:44:02;22.90;40.84
71177;DHT22;58877;51.992;4.504;2022-08-06T10:46:28;22.26;42.28
71177;DHT22;58877;51.992;4.504;2022-08-06T10:48:54;21.77;43.83
71177;DHT22;58877;51.992;4.504;2022-08-06T10:51:20;21.57;43.77
71177;DHT22;58877;51.992;4.504;2022-08-06T10:53:46;21.40;43.75
71177;DHT22;58877;51.992;4.504;2022-08-06T10:56:16;21.45;43.40
71177;DHT22;58877;51.992;4.504;2022-08-06T10:58:43;22.18;42.75
71177;DHT22;58877;51.992;4.504;2022-08-06T11:01:18;22.48;42.06
71177;DHT22;58877;51.992;4.504;2022-08-06T11:03:58;22.48;41.24
71177;DHT22;58877;51.992;4.504;2022-08-06T11:09:41;21.48;42.48
71177;DHT22;58877;51.992;4.504;2022-08-06T11:14:50;21.17;44.36
71177;DHT22;58877;51.992;4.504;2022-08-06T11:17:16;21.38;43.19
71177;DHT22;58877;51.992;4.504;2022-08-06T11:19:48;21.57;42.28
71177;DHT22;58877;51.992;4.504;2022-08-06T11:22:34;21.34;42.40
71177;DHT22;58877;51.992;4.504;2022-08-06T11:25:01;21.26;42.98
71177;DHT22;58877;51.992;4.504;2022-08-06T11:27:47;21.43;43.79
71177;DHT22;58877;51.992;4.504;2022-08-06T11:30:13;21.43;44.88
71177;DHT22;58877;51.992;4.504;2022-08-06T11:32:52;21.38;45.09
71177;DHT22;58877;51.992;4.504;2022-08-06T11:35:42;21.62;44.36
71177;DHT22;58877;51.992;4.504;2022-08-06T11:38:11;21.89;43.75
71177;DHT22;58877;51.992;4.504;2022-08-06T11:40:55;21.74;42.32
71177;DHT22;58877;51.992;4.504;2022-08-06T11:51:39;21.92;42.06
71177;DHT22;58877;51.992;4.504;2022-08-06T11:54:23;22.09;40.93
71177;DHT22;58877;51.992;4.504;2022-08-06T12:01:53;22.05;41.78
71177;DHT22;58877;51.992;4.504;2022-08-06T12:07:18;22.25;41.84
71177;DHT22;58877;51.992;4.504;2022-08-06T12:09:57;22.23;40.24
71177;DHT22;58877;51.992;4.504;2022-08-06T12:14:58;22.05;38.72
71177;DHT22;58877;51.992;4.504;2022-08-06T12:17:26;22.05;40.03
71177;DHT22;58877;51.992;4.504;2022-08-06T12:19:54;22.19;38.27
71177;DHT22;58877;51.992;4.504;2022-08-06T12:22:22;22.06;39.15
71177;DHT22;58877;51.992;4.504;2022-08-06T12:24:50;22.25;39.80
71177;DHT22;58877;51.992;4.504;2022-08-06T12:27:17;22.11;39.43
71177;DHT22;58877;51.992;4.504;2022-08-06T12:29:44;22.06;39.35
71177;DHT22;58877;51.992;4.504;2022-08-06T12:32:20;22.04;40.34
71177;DHT22;58877;51.992;4.504;2022-08-06T12:34:47;22.15;40.41
71177;DHT22;58877;51.992;4.504;2022-08-06T12:37:13;22.23;40.70
71177;DHT22;58877;51.992;4.504;2022-08-06T12:39:40;22.39;39.68
71177;DHT22;58877;51.992;4.504;2022-08-06T12:42:27;22.19;40.07
71177;DHT22;58877;51.992;4.504;2022-08-06T12:44:54;21.91;40.44
71177;DHT22;58877;51.992;4.504;2022-08-06T12:47:21;22.01;40.24
71177;DHT22;58877;51.992;4.504;2022-08-06T12:49:46;22.28;40.85
71177;DHT22;58877;51.992;4.504;2022-08-06T12:52:18;22.45;39.10
71177;DHT22;58877;51.992;4.504;2022-08-06T12:54:48;22.29;39.55
71177;DHT22;58877;51.992;4.504;2022-08-06T12:57:25;22.15;40.11
71177;DHT22;58877;51.992;4.504;2022-08-06T12:59:52;22.22;40.02
71177;DHT22;58877;51.992;4.504;2022-08-06T13:02:20;22.43;38.78
71177;DHT22;58877;51.992;4.504;2022-08-06T13:04:50;22.31;37.81
71177;DHT22;58877;51.992;4.504;2022-08-06T13:07:20;22.25;39.59
71177;DHT22;58877;51.992;4.504;2022-08-06T13:09:46;22.19;38.56
71177;DHT22;58877;51.992;4.504;2022-08-06T13:12:14;22.36;40.65
71177;DHT22;58877;51.992;4.504;2022-08-06T13:14:55;22.29;39.14
71177;DHT22;58877;51.992;4.504;2022-08-06T13:17:25;22.26;40.35
71177;DHT22;58877;51.992;4.504;2022-08-06T13:19:56;21.89;40.62
71177;DHT22;58877;51.992;4.504;2022-08-06T13:22:27;22.04;39.98
71177;DHT22;58877;51.992;4.504;2022-08-06T13:25:12;22.19;40.69
71177;DHT22;58877;51.992;4.504;2022-08-06T13:27:41;22.09;40.46
71177;DHT22;58877;51.992;4.504;2022-08-06T13:30:08;22.38;39.74
71177;DHT22;58877;51.992;4.504;2022-08-06T13:32:35;22.57;38.00
71177;DHT22;58877;51.992;4.504;2022-08-06T13:35:07;22.41;38.08
71177;DHT22;58877;51.992;4.504;2022-08-06T13:37:50;22.35;38.57
71177;DHT22;58877;51.992;4.504;2022-08-06T13:40:18;22.45;39.57
71177;DHT22;58877;51.992;4.504;2022-08-06T13:42:55;21.95;40.38
71177;DHT22;58877;51.992;4.504;2022-08-06T13:45:26;22.31;40.75
71177;DHT22;58877;51.992;4.504;2022-08-06T13:48:06;22.56;39.42
71177;DHT22;58877;51.992;4.504;2022-08-06T13:50:34;22.43;38.46
71177;DHT22;58877;51.992;4.504;2022-08-06T13:53:00;22.94;37.25
71177;DHT22;58877;51.992;4.504;2022-08-06T13:55:25;22.76;37.32
71177;DHT22;58877;51.992;4.504;2022-08-06T13:57:52;22.48;38.61
71177;DHT22;58877;51.992;4.504;2022-08-06T14:00:20;22.52;39.50
71177;DHT22;58877;51.992;4.504;2022-08-06T14:02:46;22.69;38.71
71177;DHT22;58877;51.992;4.504;2022-08-06T14:05:12;22.64;38.73
71177;DHT22;58877;51.992;4.504;2022-08-06T14:07:37;22.26;40.40
71177;DHT22;58877;51.992;4.504;2022-08-06T14:10:04;22.42;40.43
71177;DHT22;58877;51.992;4.504;2022-08-06T14:12:30;22.74;40.93
71177;DHT22;58877;51.992;4.504;2022-08-06T14:14:57;22.87;39.25
71177;DHT22;58877;51.992;4.504;2022-08-06T14:17:22;22.84;38.26
71177;DHT22;58877;51.992;4.504;2022-08-06T14:19:51;22.57;39.08
71177;DHT22;58877;51.992;4.504;2022-08-06T14:22:17;22.48;38.57
71177;DHT22;58877;51.992;4.504;2022-08-06T14:24:43;22.67;39.10
71177;DHT22;58877;51.992;4.504;2022-08-06T14:27:10;22.80;38.45
71177;DHT22;58877;51.992;4.504;2022-08-06T14:29:36;22.64;36.84
71177;DHT22;58877;51.992;4.504;2022-08-06T14:32:03;22.69;38.12
71177;DHT22;58877;51.992;4.504;2022-08-06T14:34:29;22.33;38.95
71177;DHT22;58877;51.992;4.504;2022-08-06T14:36:55;22.28;40.73
71177;DHT22;58877;51.992;4.504;2022-08-06T14:39:20;22.33;41.08
71177;DHT22;58877;51.992;4.504;2022-08-06T14:41:46;22.18;40.65
71177;DHT22;58877;51.992;4.504;2022-08-06T14:44:31;22.45;39.94
71177;DHT22;58877;51.992;4.504;2022-08-06T14:47:15;22.41;40.53
71177;DHT22;58877;51.992;4.504;2022-08-06T14:49:41;22.36;41.41
71177;DHT22;58877;51.992;4.504;2022-08-06T14:52:10;22.92;39.09
71177;DHT22;58877;51.992;4.504;2022-08-06T14:54:37;23.08;37.36
71177;DHT22;58877;51.992;4.504;2022-08-06T14:57:05;23.41;36.25
71177;DHT22;58877;51.992;4.504;2022-08-06T14:59:31;23.28;36.71
71177;DHT22;58877;51.992;4.504;2022-08-06T15:01:56;23.06;39.74
71177;DHT22;58877;51.992;4.504;2022-08-06T15:04:22;23.81;37.47
71177;DHT22;58877;51.992;4.504;2022-08-06T15:06:48;23.95;36.65
71177;DHT22;58877;51.992;4.504;2022-08-06T15:09:14;23.98;37.96
71177;DHT22;58877;51.992;4.504;2022-08-06T15:11:40;24.32;37.97
71177;DHT22;58877;51.992;4.504;2022-08-06T15:14:05;23.99;37.59
71177;DHT22;58877;51.992;4.504;2022-08-06T15:16:31;23.62;38.74
71177;DHT22;58877;51.992;4.504;2022-08-06T15:18:59;23.71;38.17
71177;DHT22;58877;51.992;4.504;2022-08-06T15:21:28;24.19;37.38
71177;DHT22;58877;51.992;4.504;2022-08-06T15:23:59;24.44;36.41
71177;DHT22;58877;51.992;4.504;2022-08-06T15:26:51;24.44;36.09
71177;DHT22;58877;51.992;4.504;2022-08-06T15:29:40;24.59;35.37
71177;DHT22;58877;51.992;4.504;2022-08-06T15:32:06;24.44;36.75
71177;DHT22;58877;51.992;4.504;2022-08-06T15:34:31;23.86;37.90
71177;DHT22;58877;51.992;4.504;2022-08-06T15:36:57;24.25;37.45
71177;DHT22;58877;51.992;4.504;2022-08-06T15:39:24;24.88;35.31
71177;DHT22;58877;51.992;4.504;2022-08-06T15:41:50;24.29;36.25
71177;DHT22;58877;51.992;4.504;2022-08-06T15:44:15;23.78;37.30
71177;DHT22;58877;51.992;4.504;2022-08-06T15:46:41;24.32;37.50
71177;DHT22;58877;51.992;4.504;2022-08-06T15:49:07;24.30;37.22
71177;DHT22;58877;51.992;4.504;2022-08-06T15:51:32;24.40;36.58
71177;DHT22;58877;51.992;4.504;2022-08-06T15:53:58;24.15;37.37
71177;DHT22;58877;51.992;4.504;2022-08-06T15:56:25;24.74;37.06
71177;DHT22;58877;51.992;4.504;2022-08-06T15:58:55;24.46;36.21
71177;DHT22;58877;51.992;4.504;2022-08-06T16:01:27;24.79;35.94
71177;DHT22;58877;51.992;4.504;2022-08-06T16:03:59;24.30;35.73
71177;DHT22;58877;51.992;4.504;2022-08-06T16:06:32;24.09;35.71
71177;DHT22;58877;51.992;4.504;2022-08-06T16:09:01;24.46;35.35
71177;DHT22;58877;51.992;4.504;2022-08-06T16:11:31;24.21;37.67
71177;DHT22;58877;51.992;4.504;2022-08-06T16:14:05;24.40;37.69
71177;DHT22;58877;51.992;4.504;2022-08-06T16:16:33;24.23;38.36
71177;DHT22;58877;51.992;4.504;2022-08-06T16:19:11;23.82;38.69
71177;DHT22;58877;51.992;4.504;2022-08-06T16:21:45;23.98;38.23
71177;DHT22;58877;51.992;4.504;2022-08-06T16:24:11;24.30;38.44
71177;DHT22;58877;51.992;4.504;2022-08-06T16:26:43;23.94;38.61
71177;DHT22;58877;51.992;4.504;2022-08-06T16:29:10;24.08;39.34
71177;DHT22;58877;51.992;4.504;2022-08-06T16:31:36;24.15;39.34
71177;DHT22;58877;51.992;4.504;2022-08-06T16:34:02;23.89;38.66
71177;DHT22;58877;51.992;4.504;2022-08-06T16:36:28;24.08;39.05
71177;DHT22;58877;51.992;4.504;2022-08-06T16:38:55;23.65;39.44
71177;DHT22;58877;51.992;4.504;2022-08-06T16:41:21;23.38;40.56